sensor_id;sensor_type;location;lat;lon;timestamp;temperature;humidity
40758;DHT22;26462;47.384;19.218;2023-07-24T00:00:06;22.70;99.90
40758;DHT22;26462;47.384;19.218;2023-07-24T00:02:34;22.80;99.90
40758;DHT22;26462;47.384;19.218;2023-07-24T00:05:01;22.70;99.90
40758;DHT22;26462;47.384;19.218;2023-07-24T00:07:28;22.70;99.90
40758;DHT22;26462;47.384;19.218;2023-07-24T00:09:55;22.70;99.90
40758;DHT22;26462;47.384;19.218;2023-07-24T00:12:23;22.60;99.90
40758;DHT22;26462;47.384;19.218;2023-07-24T00:14:52;22.60;99.90
40758;DHT22;26462;47.384;19.218;2023-07-24T00:17:19;22.60;99.90
40758;DHT22;26462;47.384;19.218;2023-07-24T00:19:47;22.60;99.90
40758;DHT22;26462;47.384;19.218;2023-07-24T00:22:14;22.60;99.90
40758;DHT22;26462;47.384;19.218;2023-07-24T00:24:42;22.60;99.90
40758;DHT22;26462;47.384;19.218;2023-07-24T00:27:09;22.50;99.90
40758;DHT22;26462;47.384;19.218;2023-07-24T00:29:36;22.50;99.90
40758;DHT22;26462;47.384;19.218;2023-07-24T00:32:04;22.50;99.90
40758;DHT22;26462;47.384;19.218;2023-07-24T00:34:31;22.40;99.90
40758;DHT22;26462;47.384;19.218;2023-07-24T00:36:58;22.40;99.90
40758;DHT22;26462;47.384;19.218;2023-07-24T00:39:26;22.40;99.90
40758;DHT22;26462;47.384;19.218;2023-07-24T00:41:56;22.40;99.90
40758;DHT22;26462;47.384;19.218;2023-07-24T00:44:23;22.40;99.90
40758;DHT22;26462;47.384;19.218;2023-07-24T00:46:50;22.40;99.90
40758;DHT22;26462;47.384;19.218;2023-07-24T00:49:20;22.40;99.90
40758;DHT22;26462;47.384;19.218;2023-07-24T00:51:47;22.40;99.90
40758;DHT22;26462;47.384;19.218;2023-07-24T00:54:16;22.40;99.90
40758;DHT22;26462;47.384;19.218;2023-07-24T00:56:45;22.40;99.90
40758;DHT22;26462;47.384;19.218;2023-07-24T00:59:14;22.30;99.90
40758;DHT22;26462;47.384;19.218;2023-07-24T01:01:42;22.40;99.90
40758;DHT22;26462;47.384;19.218;2023-07-24T01:04:12;22.30;99.90
40758;DHT22;26462;47.384;19.218;2023-07-24T01:06:40;22.30;99.90
40758;DHT22;26462;47.384;19.218;2023-07-24T01:09:07;22.30;99.90
40758;DHT22;26462;47.384;19.218;2023-07-24T01:11:41;22.20;99.90
40758;DHT22;26462;47.384;19.218;2023-07-24T01:14:18;22.30;99.90
40758;DHT22;26462;47.384;19.218;2023-07-24T01:16:48;22.20;99.90
40758;DHT22;26462;47.384;19.218;2023-07-24T01:19:23;22.20;99.90
40758;DHT22;26462;47.384;19.218;2023-07-24T01:25:27;22.20;99.90
40758;DHT22;26462;47.384;19.218;2023-07-24T01:27:56;22.10;99.90
40758;DHT22;26462;47.384;19.218;2023-07-24T01:30:23;22.10;99.90
40758;DHT22;26462;47.384;19.218;2023-07-24T01:32:51;22.10;99.90
40758;DHT22;26462;47.384;19.218;2023-07-24T01:35:18;22.10;99.90
40758;DHT22;26462;47.384;19.218;2023-07-24T01:37:46;22.20;99.90
40758;DHT22;26462;47.384;19.218;2023-07-24T01:40:15;22.10;99.90
40758;DHT22;26462;47.384;19.218;2023-07-24T01:42:42;22.10;99.90
40758;DHT22;26462;47.384;19.218;2023-07-24T01:45:10;22.10;99.90
40758;DHT22;26462;47.384;19.218;2023-07-24T01:47:38;22.10;99.90
40758;DHT22;26462;47.384;19.218;2023-07-24T01:50:07;22.10;99.90
40758;DHT22;26462;47.384;19.218;2023-07-24T01:52:34;22.00;99.90
40758;DHT22;26462;47.384;19.218;2023-07-24T01:55:01;22.10;99.90
40758;DHT22;26462;47.384;19.218;2023-07-24T01:57:29;21.90;99.90
40758;DHT22;26462;47.384;19.218;2023-07-24T01:59:59;22.00;99.90
40758;DHT22;26462;47.384;19.218;2023-07-24T02:02:26;22.00;99.90
40758;DHT22;26462;47.384;19.218;2023-07-24T02:04:54;22.20;99.90
40758;DHT22;26462;47.384;19.218;2023-07-24T02:07:22;22.00;99.90
40758;DHT22;26462;47.384;19.218;2023-07-24T02:09:50;22.00;99.90
40758;DHT22;26462;47.384;19.218;2023-07-24T02:12:20;22.00;99.90
40758;DHT22;26462;47.384;19.218;2023-07-24T02:14:47;21.90;99.90
40758;DHT22;26462;47.384;19.218;2023-07-24T02:17:19;22.00;99.90
40758;DHT22;26462;47.384;19.218;2023-07-24T02:19:46;22.00;99.90
40758;DHT22;26462;47.384;19.218;2023-07-24T02:22:13;22.00;99.90
40758;DHT22;26462;47.384;19.218;2023-07-24T02:24:44;22.00;99.90
40758;DHT22;26462;47.384;19.218;2023-07-24T02:27:12;22.00;99.90
40758;DHT22;26462;47.384;19.218;2023-07-24T02:29:45;22.00;99.90
40758;DHT22;26462;47.384;19.218;2023-07-24T02:32:13;22.00;99.90
40758;DHT22;26462;47.384;19.218;2023-07-24T02:34:41;22.00;99.90
40758;DHT22;26462;47.384;19.218;2023-07-24T02:37:11;22.00;99.90
40758;DHT22;26462;47.384;19.218;2023-07-24T02:39:39;21.90;99.90
40758;DHT22;26462;47.384;19.218;2023-07-24T02:42:06;21.80;99.90
40758;DHT22;26462;47.384;19.218;2023-07-24T02:44:34;21.80;99.90
40758;DHT22;26462;47.384;19.218;2023-07-24T02:47:02;21.90;99.90
40758;DHT22;26462;47.384;19.218;2023-07-24T02:49:29;21.90;99.90
40758;DHT22;26462;47.384;19.218;2023-07-24T02:51:56;21.90;99.90
40758;DHT22;26462;47.384;19.218;2023-07-24T02:54:25;21.90;99.90
40758;DHT22;26462;47.384;19.218;2023-07-24T02:56:53;21.80;99.90
40758;DHT22;26462;47.384;19.218;2023-07-24T02:59:21;21.80;99.90
40758;DHT22;26462;47.384;19.218;2023-07-24T03:01:48;21.80;99.90
40758;DHT22;26462;47.384;19.218;2023-07-24T03:04:16;21.70;99.90
40758;DHT22;26462;47.384;19.218;2023-07-24T03:06:46;21.70;99.90
40758;DHT22;26462;47.384;19.218;2023-07-24T03:09:13;21.70;99.90
40758;DHT22;26462;47.384;19.218;2023-07-24T03:11:41;21.70;99.90
40758;DHT22;26462;47.384;19.218;2023-07-24T03:14:08;21.70;99.90
40758;DHT22;26462;47.384;19.218;2023-07-24T03:16:36;21.70;99.90
40758;DHT22;26462;47.384;19.218;2023-07-24T03:19:04;21.70;99.90
40758;DHT22;26462;47.384;19.218;2023-07-24T03:21:31;21.70;99.90
40758;DHT22;26462;47.384;19.218;2023-07-24T03:23:58;21.70;99.90
40758;DHT22;26462;47.384;19.218;2023-07-24T03:26:26;21.70;99.90
40758;DHT22;26462;47.384;19.218;2023-07-24T03:28:54;21.60;99.90
40758;DHT22;26462;47.384;19.218;2023-07-24T03:31:21;21.60;99.90
40758;DHT22;26462;47.384;19.218;2023-07-24T03:33:48;21.60;99.90
40758;DHT22;26462;47.384;19.218;2023-07-24T03:36:16;21.60;99.90
40758;DHT22;26462;47.384;19.218;2023-07-24T03:38:49;21.40;99.90
40758;DHT22;26462;47.384;19.218;2023-07-24T03:41:17;21.30;99.90
40758;DHT22;26462;47.384;19.218;2023-07-24T03:43:44;21.40;99.90
40758;DHT22;26462;47.384;19.218;2023-07-24T03:46:12;21.60;99.90
40758;DHT22;26462;47.384;19.218;2023-07-24T03:48:39;21.40;99.90
40758;DHT22;26462;47.384;19.218;2023-07-24T03:51:06;21.40;99.90
40758;DHT22;26462;47.384;19.218;2023-07-24T03:53:37;21.50;99.90
40758;DHT22;26462;47.384;19.218;2023-07-24T03:56:07;21.40;99.90
40758;DHT22;26462;47.384;19.218;2023-07-24T03:58:34;21.00;99.90
40758;DHT22;26462;47.384;19.218;2023-07-24T04:01:08;21.40;99.90
40758;DHT22;26462;47.384;19.218;2023-07-24T04:03:35;21.20;99.90
40758;DHT22;26462;47.384;19.218;2023-07-24T04:06:03;21.20;99.90
40758;DHT22;26462;47.384;19.218;2023-07-24T04:08:30;21.30;99.90
40758;DHT22;26462;47.384;19.218;2023-07-24T04:10:58;21.40;99.90
40758;DHT22;26462;47.384;19.218;2023-07-24T04:13:25;21.40;99.90
40758;DHT22;26462;47.384;19.218;2023-07-24T04:15:52;21.40;99.90
40758;DHT22;26462;47.384;19.218;2023-07-24T04:18:20;21.50;99.90
40758;DHT22;26462;47.384;19.218;2023-07-24T04:20:47;21.60;99.90
40758;DHT22;26462;47.384;19.218;2023-07-24T04:23:14;21.50;99.90
40758;DHT22;26462;47.384;19.218;2023-07-24T04:25:42;21.40;99.90
40758;DHT22;26462;47.384;19.218;2023-07-24T04:28:09;21.60;99.90
40758;DHT22;26462;47.384;19.218;2023-07-24T04:30:36;21.70;99.90
40758;DHT22;26462;47.384;19.218;2023-07-24T04:33:03;21.70;99.90
40758;DHT22;26462;47.384;19.218;2023-07-24T04:35:31;21.80;99.90
40758;DHT22;26462;47.384;19.218;2023-07-24T04:37:58;21.90;99.90
40758;DHT22;26462;47.384;19.218;2023-07-24T04:40:28;21.90;99.90
40758;DHT22;26462;47.384;19.218;2023-07-24T04:42:56;21.90;99.90
40758;DHT22;26462;47.384;19.218;2023-07-24T04:45:23;21.90;99.90
40758;DHT22;26462;47.384;19.218;2023-07-24T04:47:50;22.00;99.90
40758;DHT22;26462;47.384;19.218;2023-07-24T04:50:18;22.00;99.90
40758;DHT22;26462;47.384;19.218;2023-07-24T04:52:45;22.00;99.90
40758;DHT22;26462;47.384;19.218;2023-07-24T04:55:12;22.20;99.90
40758;DHT22;26462;47.384;19.218;2023-07-24T04:57:39;22.10;99.90
40758;DHT22;26462;47.384;19.218;2023-07-24T05:00:07;22.20;99.90
40758;DHT22;26462;47.384;19.218;2023-07-24T05:02:35;22.30;99.90
40758;DHT22;26462;47.384;19.218;2023-07-24T05:05:02;22.30;99.90
40758;DHT22;26462;47.384;19.218;2023-07-24T05:07:29;22.40;99.90
40758;DHT22;26462;47.384;19.218;2023-07-24T05:09:56;22.40;99.90
40758;DHT22;26462;47.384;19.218;2023-07-24T05:12:27;22.50;99.90
40758;DHT22;26462;47.384;19.218;2023-07-24T05:14:54;22.60;99.90
40758;DHT22;26462;47.384;19.218;2023-07-24T05:17:21;22.70;99.90
40758;DHT22;26462;47.384;19.218;2023-07-24T05:19:48;22.80;99.90
40758;DHT22;26462;47.384;19.218;2023-07-24T05:22:16;22.90;99.90
40758;DHT22;26462;47.384;19.218;2023-07-24T05:24:43;23.00;99.90
40758;DHT22;26462;47.384;19.218;2023-07-24T05:27:10;23.10;99.90
40758;DHT22;26462;47.384;19.218;2023-07-24T05:29:39;23.20;99.90
40758;DHT22;26462;47.384;19.218;2023-07-24T05:32:07;23.30;99.90
40758;DHT22;26462;47.384;19.218;2023-07-24T05:34:34;23.40;99.90
40758;DHT22;26462;47.384;19.218;2023-07-24T05:37:01;23.60;99.90
40758;DHT22;26462;47.384;19.218;2023-07-24T05:39:29;23.70;99.90
40758;DHT22;26462;47.384;19.218;2023-07-24T05:41:57;23.80;99.90
40758;DHT22;26462;47.384;19.218;2023-07-24T05:44:24;23.90;99.90
40758;DHT22;26462;47.384;19.218;2023-07-24T05:46:51;24.00;99.90
40758;DHT22;26462;47.384;19.218;2023-07-24T05:49:18;24.00;99.90
40758;DHT22;26462;47.384;19.218;2023-07-24T05:51:45;24.10;99.90
40758;DHT22;26462;47.384;19.218;2023-07-24T05:54:14;24.20;99.90
40758;DHT22;26462;47.384;19.218;2023-07-24T05:56:41;24.40;99.90
40758;DHT22;26462;47.384;19.218;2023-07-24T05:59:08;24.50;99.90
40758;DHT22;26462;47.384;19.218;2023-07-24T06:01:35;24.60;99.90
40758;DHT22;26462;47.384;19.218;2023-07-24T06:04:03;24.70;99.90
40758;DHT22;26462;47.384;19.218;2023-07-24T06:06:30;24.80;99.90
40758;DHT22;26462;47.384;19.218;2023-07-24T06:08:58;24.90;99.90
40758;DHT22;26462;47.384;19.218;2023-07-24T06:11:25;25.00;99.90
40758;DHT22;26462;47.384;19.218;2023-07-24T06:13:53;25.20;99.90
40758;DHT22;26462;47.384;19.218;2023-07-24T06:16:20;25.20;99.90
40758;DHT22;26462;47.384;19.218;2023-07-24T06:18:48;25.30;99.90
40758;DHT22;26462;47.384;19.218;2023-07-24T06:21:15;25.40;99.90
40758;DHT22;26462;47.384;19.218;2023-07-24T06:23:42;25.50;99.90
40758;DHT22;26462;47.384;19.218;2023-07-24T06:26:09;25.60;99.90
40758;DHT22;26462;47.384;19.218;2023-07-24T06:28:36;25.80;99.90
40758;DHT22;26462;47.384;19.218;2023-07-24T06:31:03;25.90;99.90
40758;DHT22;26462;47.384;19.218;2023-07-24T06:33:30;26.00;99.70
40758;DHT22;26462;47.384;19.218;2023-07-24T06:35:57;26.00;99.40
40758;DHT22;26462;47.384;19.218;2023-07-24T06:38:24;26.10;99.90
40758;DHT22;26462;47.384;19.218;2023-07-24T06:40:51;26.20;99.70
40758;DHT22;26462;47.384;19.218;2023-07-24T06:43:19;26.20;99.60
40758;DHT22;26462;47.384;19.218;2023-07-24T06:45:46;26.40;99.50
40758;DHT22;26462;47.384;19.218;2023-07-24T06:48:13;26.40;99.50
40758;DHT22;26462;47.384;19.218;2023-07-24T06:50:40;26.50;99.20
40758;DHT22;26462;47.384;19.218;2023-07-24T06:53:07;26.70;98.90
40758;DHT22;26462;47.384;19.218;2023-07-24T06:55:34;26.80;99.10
40758;DHT22;26462;47.384;19.218;2023-07-24T06:58:02;26.90;98.70
40758;DHT22;26462;47.384;19.218;2023-07-24T07:00:29;26.90;98.20
40758;DHT22;26462;47.384;19.218;2023-07-24T07:02:56;27.10;97.70
40758;DHT22;26462;47.384;19.218;2023-07-24T07:05:23;27.10;97.70
40758;DHT22;26462;47.384;19.218;2023-07-24T07:07:50;27.20;97.00
40758;DHT22;26462;47.384;19.218;2023-07-24T07:10:17;27.30;97.30
40758;DHT22;26462;47.384;19.218;2023-07-24T07:12:45;27.40;96.10
40758;DHT22;26462;47.384;19.218;2023-07-24T07:15:12;27.50;96.70
40758;DHT22;26462;47.384;19.218;2023-07-24T07:17:39;27.50;95.40
40758;DHT22;26462;47.384;19.218;2023-07-24T07:20:06;27.60;95.90
40758;DHT22;26462;47.384;19.218;2023-07-24T07:22:34;27.70;95.40
40758;DHT22;26462;47.384;19.218;2023-07-24T07:25:01;27.80;95.50
40758;DHT22;26462;47.384;19.218;2023-07-24T07:27:28;28.00;95.50
40758;DHT22;26462;47.384;19.218;2023-07-24T07:29:55;28.20;94.60
40758;DHT22;26462;47.384;19.218;2023-07-24T07:32:22;28.30;94.40
40758;DHT22;26462;47.384;19.218;2023-07-24T07:34:49;28.30;94.30
40758;DHT22;26462;47.384;19.218;2023-07-24T07:37:16;28.30;93.80
40758;DHT22;26462;47.384;19.218;2023-07-24T07:39:44;28.30;94.10
40758;DHT22;26462;47.384;19.218;2023-07-24T07:42:11;28.40;93.70
40758;DHT22;26462;47.384;19.218;2023-07-24T07:44:45;28.50;93.30
40758;DHT22;26462;47.384;19.218;2023-07-24T07:47:13;28.60;92.60
40758;DHT22;26462;47.384;19.218;2023-07-24T07:49:40;28.70;93.00
40758;DHT22;26462;47.384;19.218;2023-07-24T07:52:08;28.70;91.90
40758;DHT22;26462;47.384;19.218;2023-07-24T07:54:35;28.70;91.80
40758;DHT22;26462;47.384;19.218;2023-07-24T07:57:04;28.80;91.20
40758;DHT22;26462;47.384;19.218;2023-07-24T07:59:31;28.80;91.50
40758;DHT22;26462;47.384;19.218;2023-07-24T08:01:59;28.80;90.40
40758;DHT22;26462;47.384;19.218;2023-07-24T08:04:26;28.90;90.60
40758;DHT22;26462;47.384;19.218;2023-07-24T08:06:53;28.90;90.00
40758;DHT22;26462;47.384;19.218;2023-07-24T08:09:20;28.90;90.00
40758;DHT22;26462;47.384;19.218;2023-07-24T08:11:48;29.00;90.20
40758;DHT22;26462;47.384;19.218;2023-07-24T08:14:15;29.10;89.30
40758;DHT22;26462;47.384;19.218;2023-07-24T08:16:42;29.10;90.30
40758;DHT22;26462;47.384;19.218;2023-07-24T08:19:09;29.20;89.70
40758;DHT22;26462;47.384;19.218;2023-07-24T08:21:37;29.20;89.70
40758;DHT22;26462;47.384;19.218;2023-07-24T08:24:06;29.20;88.10
40758;DHT22;26462;47.384;19.218;2023-07-24T08:26:33;29.20;88.00
40758;DHT22;26462;47.384;19.218;2023-07-24T08:29:00;29.20;89.50
40758;DHT22;26462;47.384;19.218;2023-07-24T08:31:29;29.30;88.20
40758;DHT22;26462;47.384;19.218;2023-07-24T08:33:56;29.30;88.70
40758;DHT22;26462;47.384;19.218;2023-07-24T08:36:24;29.30;85.30
40758;DHT22;26462;47.384;19.218;2023-07-24T08:38:51;29.40;85.00
40758;DHT22;26462;47.384;19.218;2023-07-24T08:41:18;29.40;84.30
40758;DHT22;26462;47.384;19.218;2023-07-24T08:43:45;29.40;84.30
40758;DHT22;26462;47.384;19.218;2023-07-24T08:46:13;29.50;83.40
40758;DHT22;26462;47.384;19.218;2023-07-24T08:48:41;29.50;82.50
40758;DHT22;26462;47.384;19.218;2023-07-24T08:51:14;29.50;81.90
40758;DHT22;26462;47.384;19.218;2023-07-24T08:53:43;29.50;82.50
40758;DHT22;26462;47.384;19.218;2023-07-24T08:56:11;29.70;83.20
40758;DHT22;26462;47.384;19.218;2023-07-24T08:58:39;29.90;82.30
40758;DHT22;26462;47.384;19.218;2023-07-24T09:01:08;30.00;80.80
40758;DHT22;26462;47.384;19.218;2023-07-24T09:03:37;30.00;79.90
40758;DHT22;26462;47.384;19.218;2023-07-24T09:06:04;30.10;78.50
40758;DHT22;26462;47.384;19.218;2023-07-24T09:08:39;30.20;79.40
40758;DHT22;26462;47.384;19.218;2023-07-24T09:11:08;30.20;77.60
40758;DHT22;26462;47.384;19.218;2023-07-24T09:13:37;30.10;76.20
40758;DHT22;26462;47.384;19.218;2023-07-24T09:16:05;30.20;76.00
40758;DHT22;26462;47.384;19.218;2023-07-24T09:18:42;30.10;73.50
40758;DHT22;26462;47.384;19.218;2023-07-24T09:21:10;30.30;75.00
40758;DHT22;26462;47.384;19.218;2023-07-24T09:23:40;30.30;73.70
40758;DHT22;26462;47.384;19.218;2023-07-24T09:26:08;30.40;74.50
40758;DHT22;26462;47.384;19.218;2023-07-24T09:28:35;30.50;72.70
40758;DHT22;26462;47.384;19.218;2023-07-24T09:31:03;30.50;69.20
40758;DHT22;26462;47.384;19.218;2023-07-24T09:33:39;30.60;71.50
40758;DHT22;26462;47.384;19.218;2023-07-24T09:36:08;30.60;72.70
40758;DHT22;26462;47.384;19.218;2023-07-24T09:38:36;30.70;71.50
40758;DHT22;26462;47.384;19.218;2023-07-24T09:41:04;30.80;70.70
40758;DHT22;26462;47.384;19.218;2023-07-24T09:43:35;30.70;70.50
40758;DHT22;26462;47.384;19.218;2023-07-24T09:46:08;30.80;69.50
40758;DHT22;26462;47.384;19.218;2023-07-24T09:48:37;30.80;66.80
40758;DHT22;26462;47.384;19.218;2023-07-24T09:51:11;30.90;67.30
40758;DHT22;26462;47.384;19.218;2023-07-24T09:56:38;31.00;67.50
40758;DHT22;26462;47.384;19.218;2023-07-24T09:59:21;31.00;67.90
40758;DHT22;26462;47.384;19.218;2023-07-24T10:01:49;30.90;67.90
40758;DHT22;26462;47.384;19.218;2023-07-24T10:04:18;30.90;67.00
40758;DHT22;26462;47.384;19.218;2023-07-24T10:06:46;30.80;66.10
40758;DHT22;26462;47.384;19.218;2023-07-24T10:09:14;30.90;67.60
40758;DHT22;26462;47.384;19.218;2023-07-24T10:11:42;30.90;67.10
40758;DHT22;26462;47.384;19.218;2023-07-24T10:14:09;30.90;67.50
40758;DHT22;26462;47.384;19.218;2023-07-24T10:16:37;31.10;68.00
40758;DHT22;26462;47.384;19.218;2023-07-24T10:19:16;31.10;66.10
40758;DHT22;26462;47.384;19.218;2023-07-24T10:21:47;31.10;66.20
40758;DHT22;26462;47.384;19.218;2023-07-24T10:24:15;31.00;67.30
40758;DHT22;26462;47.384;19.218;2023-07-24T10:27:03;31.00;65.10
40758;DHT22;26462;47.384;19.218;2023-07-24T10:29:34;31.20;67.20
40758;DHT22;26462;47.384;19.218;2023-07-24T10:32:03;31.20;66.10
40758;DHT22;26462;47.384;19.218;2023-07-24T10:34:39;31.20;65.10
40758;DHT22;26462;47.384;19.218;2023-07-24T10:37:08;31.40;65.80
40758;DHT22;26462;47.384;19.218;2023-07-24T10:39:41;31.40;65.50
40758;DHT22;26462;47.384;19.218;2023-07-24T10:42:10;31.30;65.50
40758;DHT22;26462;47.384;19.218;2023-07-24T10:44:37;31.40;65.10
40758;DHT22;26462;47.384;19.218;2023-07-24T10:47:04;31.40;65.00
40758;DHT22;26462;47.384;19.218;2023-07-24T10:49:31;31.40;65.80
40758;DHT22;26462;47.384;19.218;2023-07-24T10:51:59;31.40;66.50
40758;DHT22;26462;47.384;19.218;2023-07-24T10:54:26;31.30;65.90
40758;DHT22;26462;47.384;19.218;2023-07-24T10:57:00;31.30;65.40
40758;DHT22;26462;47.384;19.218;2023-07-24T10:59:40;31.20;65.60
40758;DHT22;26462;47.384;19.218;2023-07-24T11:02:07;31.20;65.90
40758;DHT22;26462;47.384;19.218;2023-07-24T11:04:34;31.20;65.70
40758;DHT22;26462;47.384;19.218;2023-07-24T11:07:02;31.30;65.90
40758;DHT22;26462;47.384;19.218;2023-07-24T11:09:36;31.40;66.00
40758;DHT22;26462;47.384;19.218;2023-07-24T11:14:51;31.60;64.50
40758;DHT22;26462;47.384;19.218;2023-07-24T11:17:18;31.70;65.10
40758;DHT22;26462;47.384;19.218;2023-07-24T11:19:45;31.80;65.70
40758;DHT22;26462;47.384;19.218;2023-07-24T11:22:12;31.50;64.60
40758;DHT22;26462;47.384;19.218;2023-07-24T11:24:45;31.70;64.60
40758;DHT22;26462;47.384;19.218;2023-07-24T11:27:16;31.70;63.60
40758;DHT22;26462;47.384;19.218;2023-07-24T11:29:48;31.70;63.70
40758;DHT22;26462;47.384;19.218;2023-07-24T11:32:19;31.80;64.30
40758;DHT22;26462;47.384;19.218;2023-07-24T11:34:48;31.80;64.60
40758;DHT22;26462;47.384;19.218;2023-07-24T11:37:16;32.00;65.10
40758;DHT22;26462;47.384;19.218;2023-07-24T11:39:58;31.90;64.00
40758;DHT22;26462;47.384;19.218;2023-07-24T11:42:27;31.80;64.40
40758;DHT22;26462;47.384;19.218;2023-07-24T11:44:54;31.80;64.60
40758;DHT22;26462;47.384;19.218;2023-07-24T11:47:21;32.00;64.90
40758;DHT22;26462;47.384;19.218;2023-07-24T11:50:00;31.90;64.80
40758;DHT22;26462;47.384;19.218;2023-07-24T11:52:49;31.80;65.00
40758;DHT22;26462;47.384;19.218;2023-07-24T11:55:30;31.90;66.40
40758;DHT22;26462;47.384;19.218;2023-07-24T11:58:01;31.90;64.70
40758;DHT22;26462;47.384;19.218;2023-07-24T12:00:36;32.00;65.30
40758;DHT22;26462;47.384;19.218;2023-07-24T12:03:03;32.00;64.10
40758;DHT22;26462;47.384;19.218;2023-07-24T12:05:42;32.00;63.60
40758;DHT22;26462;47.384;19.218;2023-07-24T12:08:10;31.90;64.00
40758;DHT22;26462;47.384;19.218;2023-07-24T12:10:38;31.90;64.10
40758;DHT22;26462;47.384;19.218;2023-07-24T12:13:07;31.90;63.30
40758;DHT22;26462;47.384;19.218;2023-07-24T12:15:34;32.00;62.90
40758;DHT22;26462;47.384;19.218;2023-07-24T12:18:03;32.10;63.50
40758;DHT22;26462;47.384;19.218;2023-07-24T12:20:31;32.00;62.10
40758;DHT22;26462;47.384;19.218;2023-07-24T12:22:58;32.10;63.10
40758;DHT22;26462;47.384;19.218;2023-07-24T12:25:27;32.00;63.30
40758;DHT22;26462;47.384;19.218;2023-07-24T12:27:54;32.10;63.90
40758;DHT22;26462;47.384;19.218;2023-07-24T12:30:21;32.10;63.50
40758;DHT22;26462;47.384;19.218;2023-07-24T12:32:48;32.10;64.40
40758;DHT22;26462;47.384;19.218;2023-07-24T12:35:16;32.30;64.40
40758;DHT22;26462;47.384;19.218;2023-07-24T12:37:45;32.20;64.80
40758;DHT22;26462;47.384;19.218;2023-07-24T12:40:12;32.30;64.70
40758;DHT22;26462;47.384;19.218;2023-07-24T12:42:40;32.40;64.20
40758;DHT22;26462;47.384;19.218;2023-07-24T12:45:07;32.50;64.10
40758;DHT22;26462;47.384;19.218;2023-07-24T12:47:34;32.30;62.50
40758;DHT22;26462;47.384;19.218;2023-07-24T12:50:02;32.20;63.50
40758;DHT22;26462;47.384;19.218;2023-07-24T12:52:33;32.30;63.20
40758;DHT22;26462;47.384;19.218;2023-07-24T12:55:00;32.40;64.00
40758;DHT22;26462;47.384;19.218;2023-07-24T12:57:29;32.30;63.60
40758;DHT22;26462;47.384;19.218;2023-07-24T12:59:58;32.30;63.70
40758;DHT22;26462;47.384;19.218;2023-07-24T13:02:25;32.40;64.70
40758;DHT22;26462;47.384;19.218;2023-07-24T13:04:52;32.40;64.60
40758;DHT22;26462;47.384;19.218;2023-07-24T13:07:19;32.40;65.00
40758;DHT22;26462;47.384;19.218;2023-07-24T13:09:46;32.40;64.00
40758;DHT22;26462;47.384;19.218;2023-07-24T13:12:14;32.40;62.80
40758;DHT22;26462;47.384;19.218;2023-07-24T13:14:41;32.40;63.20
40758;DHT22;26462;47.384;19.218;2023-07-24T13:17:09;32.30;63.30
40758;DHT22;26462;47.384;19.218;2023-07-24T13:19:36;32.30;63.90
40758;DHT22;26462;47.384;19.218;2023-07-24T13:22:04;32.30;63.30
40758;DHT22;26462;47.384;19.218;2023-07-24T13:24:31;32.30;63.20
40758;DHT22;26462;47.384;19.218;2023-07-24T13:26:59;32.40;64.30
40758;DHT22;26462;47.384;19.218;2023-07-24T13:29:26;32.40;63.40
40758;DHT22;26462;47.384;19.218;2023-07-24T13:31:53;32.40;64.60
40758;DHT22;26462;47.384;19.218;2023-07-24T13:34:21;32.40;64.90
40758;DHT22;26462;47.384;19.218;2023-07-24T13:36:48;32.50;65.60
40758;DHT22;26462;47.384;19.218;2023-07-24T13:39:16;32.40;65.00
40758;DHT22;26462;47.384;19.218;2023-07-24T13:41:43;32.40;65.60
40758;DHT22;26462;47.384;19.218;2023-07-24T13:44:11;32.30;63.60
40758;DHT22;26462;47.384;19.218;2023-07-24T13:46:39;32.30;64.30
40758;DHT22;26462;47.384;19.218;2023-07-24T13:49:06;32.30;64.00
40758;DHT22;26462;47.384;19.218;2023-07-24T13:51:34;32.40;62.60
40758;DHT22;26462;47.384;19.218;2023-07-24T13:54:01;32.30;61.50
40758;DHT22;26462;47.384;19.218;2023-07-24T13:56:29;32.30;61.10
40758;DHT22;26462;47.384;19.218;2023-07-24T13:59:01;32.30;60.30
40758;DHT22;26462;47.384;19.218;2023-07-24T14:01:28;32.20;60.60
40758;DHT22;26462;47.384;19.218;2023-07-24T14:03:56;32.00;60.40
40758;DHT22;26462;47.384;19.218;2023-07-24T14:06:24;32.00;60.70
40758;DHT22;26462;47.384;19.218;2023-07-24T14:08:51;32.20;61.10
40758;DHT22;26462;47.384;19.218;2023-07-24T14:11:19;32.20;61.70
40758;DHT22;26462;47.384;19.218;2023-07-24T14:13:46;32.30;62.50
40758;DHT22;26462;47.384;19.218;2023-07-24T14:16:13;32.30;61.10
40758;DHT22;26462;47.384;19.218;2023-07-24T14:18:41;32.40;62.20
40758;DHT22;26462;47.384;19.218;2023-07-24T14:21:08;32.50;62.00
40758;DHT22;26462;47.384;19.218;2023-07-24T14:23:36;32.50;62.30
40758;DHT22;26462;47.384;19.218;2023-07-24T14:26:04;32.50;62.10
40758;DHT22;26462;47.384;19.218;2023-07-24T14:28:32;32.50;62.50
40758;DHT22;26462;47.384;19.218;2023-07-24T14:31:02;32.60;61.90
40758;DHT22;26462;47.384;19.218;2023-07-24T14:33:31;32.70;60.70
40758;DHT22;26462;47.384;19.218;2023-07-24T14:35:58;32.40;59.90
40758;DHT22;26462;47.384;19.218;2023-07-24T14:38:26;32.30;61.00
40758;DHT22;26462;47.384;19.218;2023-07-24T14:40:53;32.20;60.00
40758;DHT22;26462;47.384;19.218;2023-07-24T14:43:20;32.30;60.00
40758;DHT22;26462;47.384;19.218;2023-07-24T14:45:47;32.20;60.20
40758;DHT22;26462;47.384;19.218;2023-07-24T14:48:15;32.10;60.50
40758;DHT22;26462;47.384;19.218;2023-07-24T14:50:43;32.10;60.70
40758;DHT22;26462;47.384;19.218;2023-07-24T14:53:11;32.20;61.00
40758;DHT22;26462;47.384;19.218;2023-07-24T14:55:39;32.20;61.30
40758;DHT22;26462;47.384;19.218;2023-07-24T14:58:07;32.00;60.50
40758;DHT22;26462;47.384;19.218;2023-07-24T15:00:34;31.80;58.70
40758;DHT22;26462;47.384;19.218;2023-07-24T15:03:02;31.70;58.40
40758;DHT22;26462;47.384;19.218;2023-07-24T15:05:29;31.60;59.70
40758;DHT22;26462;47.384;19.218;2023-07-24T15:07:56;31.50;60.60
40758;DHT22;26462;47.384;19.218;2023-07-24T15:10:24;31.50;61.30
40758;DHT22;26462;47.384;19.218;2023-07-24T15:12:51;31.50;61.50
40758;DHT22;26462;47.384;19.218;2023-07-24T15:15:18;31.50;61.10
40758;DHT22;26462;47.384;19.218;2023-07-24T15:17:48;31.50;61.00
40758;DHT22;26462;47.384;19.218;2023-07-24T15:20:17;31.50;61.20
40758;DHT22;26462;47.384;19.218;2023-07-24T15:22:45;31.50;60.90
40758;DHT22;26462;47.384;19.218;2023-07-24T15:25:14;31.50;60.50
40758;DHT22;26462;47.384;19.218;2023-07-24T15:27:44;31.50;61.20
40758;DHT22;26462;47.384;19.218;2023-07-24T15:30:13;31.50;60.30